Mogul Park, Mogul, Nevada Weather observations

Data are for 10 minute period ending at time listed.
 Day   Time   Solar   Ave.   Ave.  Ave.  Vector  Max.   Baro.   Total    
  of    of     Rad.   Air    Rel.  Wind   Wind   Wind  Press.  Precip.   
Year   Day            Temp.  Hum.  Speed  Dir.   Gust                    
2020   (PST)  Kw/m2    F      %     mph   deg.    mph    mb.     in.     
-------------------------------------------------------------------------
 152   11:00   0.98   67.2    39    5.7   100    10.3   99999.0    0.00 
 152   11:10   0.98   67.8    37    5.8    62    11.0   99999.0    0.00 
 152   11:20   1.00   67.2    37    5.5    50    10.3   99999.0    0.00 
 152   11:30   1.02   68.8    36    4.1    84     9.9   99999.0    0.00 
 152   11:40   0.88   69.3    36    7.2    98    13.1   99999.0    0.00 
 152   11:50   0.80   69.5    35    5.7    91    11.0   99999.0    0.00 
 152   12:00   0.99   70.2    33    9.1    90    13.5   99999.0    0.00 
 152   12:10   0.97   69.5    34    5.8    59    12.8   99999.0    0.00 
 152   12:20   0.92   70.7    32    6.7    93    12.1   99999.0    0.00 
 152   12:30   0.99   71.4    31    8.7   119    13.1   99999.0    0.00 
 152   12:40   1.01   71.9    31    6.4    99    12.4   99999.0    0.00 
 152   12:50   0.91   73.1    30    7.4    80    12.1   99999.0    0.00 
 152   13:00   0.86   72.8    29    7.9   132    12.4   99999.0    0.00 
 152   13:10   0.73   72.9    29    7.0    97    12.4   99999.0    0.00 
 152   13:20   0.58   72.5    30    6.2   131    11.7   99999.0    0.00 
 152   13:30   0.54   72.1    30    7.4    99    12.8   99999.0    0.00 
 152   13:40   0.82   72.4    29    6.0    87    10.3   99999.0    0.00 
 152   13:50   0.51   71.8    30    4.3    25    10.3   99999.0    0.00 
 152   14:00   0.69   73.4    29    4.5    95    11.0   99999.0    0.00 
 152   14:10   0.81   72.9    29    5.9    31    13.1   99999.0    0.00 
 152   14:20   0.88   74.9    27    7.0    82    11.4   99999.0    0.00 
 152   14:30   0.45   74.0    28    4.8    42     9.2   99999.0    0.00 
 152   14:40   0.72   74.7    27    5.9   153    10.3   99999.0    0.00 
 152   14:50   0.76   75.1    26    6.5   123    11.0   99999.0    0.00 
 152   15:00   0.68   75.7    26    5.9   106     9.9   99999.0    0.00 
 152   15:10   0.58   74.4    29    7.2   226    14.2   99999.0    0.00 
 152   15:20   0.37   71.7    31    9.3   239    13.9   99999.0    0.00 
 152   15:30   0.27   71.5    33    7.9   236    12.8   99999.0    0.00 
 152   15:40   0.22   70.5    36    7.7   224    16.7   99999.0    0.00 
 152   15:50   0.20   69.5    39   10.1   234    16.7   99999.0    0.00 
 152   16:00   0.19   68.2    42    9.0   225    17.4   99999.0    0.00 
 152   16:10   0.17   67.4    45    7.6   218    16.7   99999.0    0.00 
 152   16:20   0.13   66.4    47    9.7   228    18.1   99999.0    0.00 
 152   16:30   0.13   65.8    48   11.1   237    18.5   99999.0    0.00 
 152   16:40   0.18   65.4    50   13.7   242    23.2   99999.0    0.00 
 152   16:50   0.44   66.1    50   14.5   241    21.0   99999.0    0.00 
 152   17:00   0.29   66.4    50   14.6   243    23.2   99999.0    0.00 
 152   17:10   0.27   66.3    50   16.3   247    25.3   99999.0    0.00 
 152   17:20   0.20   66.1    50   15.7   243    25.7   99999.0    0.00 
 152   17:30   0.10   65.6    51   15.8   245    26.0   99999.0    0.00 
 152   17:40   0.02   65.1    51   14.1   243    22.4   99999.0    0.00 
 152   17:50   0.02   64.6    54   10.9   232    19.6   99999.0    0.00 
 152   18:00   0.01   62.5    62    6.2   229    12.1   99999.0    0.00 
 152   18:10   0.01   63.5    55    8.0   238    13.5   99999.0    0.00 
 152   18:20   0.02   63.8    54    8.1   245    12.1   99999.0    0.00 
 152   18:30   0.01   63.5    53    9.4   241    13.5   99999.0    0.00 
 152   18:40   0.01   63.1    52    8.8   237    13.5   99999.0    0.00 
 152   18:50   0.01   63.0    51    7.2   242    12.1   99999.0    0.00 
 152   19:00   0.01   62.9    51    6.4   259    11.4   99999.0    0.00 
 152   19:10   0.01   62.5    52    6.9   239    11.7   99999.0    0.00 
 152   19:20   0.00   62.2    49    4.8   211    11.4   99999.0    0.00 
 152   19:30   0.00   62.0    46    4.0   194     7.4   99999.0    0.00 
 152   19:40   0.00   62.3    43    6.4   228    13.5   99999.0    0.00 
 152   19:50   0.00   62.7    41    8.1   252    15.3   99999.0    0.00 
 152   20:00   0.00   62.8    40    4.3   267     8.5   99999.0    0.00 
 152   20:10   0.00   62.7    40    5.6   269     8.1   99999.0    0.00 
 152   20:20   0.00   62.2    42    4.1   281     5.6   99999.0    0.00 
 152   20:30   0.00   61.7    44    2.6    82     4.6   99999.0    0.00 
 152   20:40   0.00   60.8    46    1.9   202     4.9   99999.0    0.00 
 152   20:50   0.00   60.2    48    2.2   199     4.6   99999.0    0.00 
 152   21:00   0.00   59.9    48    1.4    92     3.1   99999.0    0.00 
 152   21:10   0.00   59.3    51    2.1   149     3.8   99999.0    0.00 
 152   21:20   0.00   59.1    59    2.8   125     4.6   99999.0    0.00 
 152   21:30   0.00   58.9    63    2.5    73     4.6   99999.0    0.00 
 152   21:40   0.00   58.8    66    2.7    52     4.6   99999.0    0.00 
 152   21:50   0.00   58.8    67    2.0    49     3.5   99999.0    0.00 
 152   22:00   0.00   58.6    68    2.2   355     3.5   99999.0    0.00 
 152   22:10   0.00   58.3    68    1.6   304     3.8   99999.0    0.00 
 152   22:20   0.00   58.4    68    2.7   291     3.8   99999.0    0.00 
 152   22:30   0.00   58.6    63    3.9   280     5.6   99999.0    0.00 
 152   22:40   0.00   58.7    56    5.5   277     8.1   99999.0    0.00 
 152   22:50   0.00   58.9    55    7.9   281    11.4   99999.0    0.00 
 152   23:00   0.00   59.1    55    7.4   273    11.7   99999.0    0.00 
 152   23:10   0.00   59.3    53    9.4   261    13.9   99999.0    0.00 
 152   23:20   0.00   59.2    55    5.9   256     8.9   99999.0    0.00 
 152   23:30   0.00   58.8    57    4.4   266     5.6   99999.0    0.00 
 152   23:40   0.00   58.7    57    4.5   265     6.7   99999.0    0.00 
 152   23:50   0.00   58.7    59    7.7   257    11.4   99999.0    0.00 
 153    0:00   0.00   58.5    60    5.0   264     8.9   99999.0    0.00 
 153    0:10   0.00   58.5    59    4.2   294     7.4   99999.0    0.00 
 153    0:20   0.00   58.5    58    5.3   301     8.9   99999.0    0.00 
 153    0:30   0.00   58.5    58    6.1   280     9.2   99999.0    0.00 
 153    0:40   0.00   58.3    58    6.6   286     8.5   99999.0    0.00 
 153    0:50   0.00   57.8    61    7.5   275    11.4   99999.0    0.00 
 153    1:00   0.00   57.2    64    7.3   267     9.6   99999.0    0.00 
 153    1:10   0.00   57.1    62    8.2   277    12.8   99999.0    0.00 
 153    1:20   0.00   57.2    61   10.7   274    15.6   99999.0    0.00 
 153    1:30   0.00   57.2    61    9.8   258    13.9   99999.0    0.00 
 153    1:40   0.00   57.1    61    9.5   277    13.9   99999.0    0.00 
 153    1:50   0.00   57.3    61    8.7   257    14.6   99999.0    0.00 
 153    2:00   0.00   57.4    60    7.0   268    10.3   99999.0    0.00 
 153    2:10   0.00   56.9    60    7.3   281     9.9   99999.0    0.00 
 153    2:20   0.00   56.7    60    8.4   282    12.1   99999.0    0.00 
 153    2:30   0.00   56.8    58    9.0   278    12.4   99999.0    0.00 
 153    2:40   0.00   56.7    58    8.5   275    11.0   99999.0    0.00 
 153    2:50   0.00   56.5    58    8.2   272    11.7   99999.0    0.00 
 153    3:00   0.00   56.4    59    7.8   266    11.7   99999.0    0.00 
 153    3:10   0.00   56.2    58    6.2   262     8.9   99999.0    0.00 
 153    3:20   0.00   56.1    58    6.6   270     9.6   99999.0    0.00 
 153    3:30   0.00   55.8    59    7.1   271    10.6   99999.0    0.00 
 153    3:40   0.00   55.9    58    8.7   272    11.4   99999.0    0.00 
 153    3:50   0.00   56.0    58    8.9   274    12.4   99999.0    0.00 
 153    4:00   0.00   56.0    58    9.4   269    12.8   99999.0    0.00 
 153    4:10   0.00   55.9    58    9.6   275    13.5   99999.0    0.00 
 153    4:20   0.00   55.9    58   10.3   271    13.9   99999.0    0.00 
 153    4:30   0.00   56.5    56    9.8   261    18.9   99999.0    0.00 
 153    4:40   0.00   56.1    57   10.9   274    14.2   99999.0    0.00 
 153    4:50   0.01   55.9    58   10.3   271    15.6   99999.0    0.00 
 153    5:00   0.02   55.9    58    9.0   269    12.1   99999.0    0.00 
 153    5:10   0.02   56.1    57    9.6   271    12.8   99999.0    0.00 
 153    5:20   0.03   55.7    59    8.6   259    13.1   99999.0    0.00 
 153    5:30   0.04   55.7    59    8.4   270    11.7   99999.0    0.00 
 153    5:40   0.04   55.5    60    7.8   268    10.6   99999.0    0.00 
 153    5:50   0.04   55.8    59    8.3   275    12.1   99999.0    0.00 
 153    6:00   0.04   55.7    60    7.4   274     9.2   99999.0    0.00 
 153    6:10   0.05   55.9    59    8.7   273    12.8   99999.0    0.00 
 153    6:20   0.05   56.0    59    8.5   273    11.4   99999.0    0.00 
 153    6:30   0.05   56.0    59    6.9   272    11.0   99999.0    0.00 
 153    6:40   0.06   56.1    59    7.3   276     9.2   99999.0    0.00 
 153    6:50   0.08   56.3    58    7.9   272    10.6   99999.0    0.00 
 153    7:00   0.09   56.5    58    8.8   275    11.4   99999.0    0.00 
 153    7:10   0.16   57.0    58    8.0   268    11.0   99999.0    0.00 
 153    7:20   0.22   57.6    57    7.7   260     9.9   99999.0    0.00 
 153    7:30   0.23   58.1    55    8.1   269    12.1   99999.0    0.00 
 153    7:40   0.29   58.4    55    8.0   266    11.0   99999.0    0.00 
 153    7:50   0.53   59.8    53    6.2   251     9.9   99999.0    0.00 
 153    8:00   0.58   60.2    51    8.3   277    11.0   99999.0    0.00 
 153    8:10   0.46   60.4    50    8.8   261    12.4   99999.0    0.00 
 153    8:20   0.51   60.9    50    8.1   240    11.7   99999.0    0.00 
 153    8:30   0.77   62.7    47    5.8   224    11.4   99999.0    0.00 
 153    8:40   0.54   63.6    48    5.6   194    14.9   99999.0    0.00 
 153    8:50   0.64   64.7    45    4.7   105     8.9   99999.0    0.00 
 153    9:00   0.67   65.4    43    6.0   111     8.9   99999.0    0.00 
 153    9:10   0.44   65.0    44    3.9    98     8.1   99999.0    0.00 
 153    9:20   0.68   65.5    44    5.5    70     7.8   99999.0    0.00 
 153    9:30   0.82   66.7    40    5.1    96     8.5   99999.0    0.00 
 153    9:40   0.82   66.7    40    4.4    66     8.5   99999.0    0.00 
 153    9:50   0.85   66.7    40    4.1    58     8.9   99999.0    0.00 
 153   10:00   0.74   67.8    38    6.0    78     9.9   99999.0    0.00 
 153   10:10   0.67   67.7    38    5.2    71     8.1   99999.0    0.00 
 153   10:20   0.74   68.5    37    5.3   102     9.9   99999.0    0.00 
 153   10:30   0.75   69.0    36    4.9    61     8.9   99999.0    0.00 
 153   10:40   0.72   69.7    36    4.5    88     9.9   99999.0    0.00 
 153   10:50   0.77   70.4    35    6.5    70    11.7   99999.0    0.00 

Return to Mogul Park graphs page.


Western Regional Climate Center,wrcc@dri.edu